createdAt,value
2018-01-21T00:00:06.776Z,946.10
2018-01-21T00:01:06.749Z,946.11
2018-01-21T00:02:06.739Z,946.13
2018-01-21T00:03:06.743Z,946.13
2018-01-21T00:04:06.735Z,946.12
2018-01-21T00:05:06.720Z,946.12
2018-01-21T00:06:06.722Z,946.11
2018-01-21T00:07:06.712Z,946.11
2018-01-21T00:08:06.699Z,946.10
2018-01-21T00:09:06.693Z,946.19
2018-01-21T00:10:06.685Z,946.20
2018-01-21T00:11:06.683Z,946.20
2018-01-21T00:12:06.676Z,946.24
2018-01-21T00:13:06.671Z,946.27
2018-01-21T00:14:06.661Z,946.25
2018-01-21T00:15:06.656Z,946.30
2018-01-21T00:16:06.644Z,946.26
2018-01-21T00:17:06.639Z,946.29
2018-01-21T00:18:06.632Z,946.33
2018-01-21T00:19:06.646Z,946.31
2018-01-21T00:20:06.618Z,946.30
2018-01-21T00:21:06.615Z,946.36
2018-01-21T00:22:06.608Z,946.32
2018-01-21T00:23:06.613Z,946.32
2018-01-21T00:24:06.590Z,946.30
2018-01-21T00:25:06.588Z,946.32
2018-01-21T00:26:06.578Z,946.34
2018-01-21T00:27:06.574Z,946.36
2018-01-21T00:28:06.566Z,946.32
2018-01-21T00:29:06.558Z,946.37
2018-01-21T00:30:06.554Z,946.31
2018-01-21T00:31:06.560Z,946.35
2018-01-21T00:32:06.540Z,946.39
2018-01-21T00:33:06.533Z,946.40
2018-01-21T00:34:06.534Z,946.43
2018-01-21T00:35:06.527Z,946.43
2018-01-21T00:36:06.517Z,946.46
2018-01-21T00:37:06.508Z,946.53
2018-01-21T00:38:06.501Z,946.52
2018-01-21T00:39:06.499Z,946.50
2018-01-21T00:40:06.487Z,946.52
2018-01-21T00:41:06.500Z,946.50
2018-01-21T00:42:06.474Z,946.51
2018-01-21T00:43:06.470Z,946.50
2018-01-21T00:44:06.461Z,946.48
2018-01-21T00:45:06.462Z,946.47
2018-01-21T00:46:06.447Z,946.51
2018-01-21T00:47:06.441Z,946.49
2018-01-21T00:48:06.433Z,946.51
2018-01-21T00:49:06.433Z,946.53
2018-01-21T00:50:06.422Z,946.58
2018-01-21T00:51:06.414Z,946.58
2018-01-21T00:52:06.406Z,946.58
2018-01-21T00:53:06.405Z,946.61
2018-01-21T00:54:06.395Z,946.57
2018-01-21T00:55:06.388Z,946.64
2018-01-21T00:56:06.381Z,946.65
2018-01-21T00:57:06.374Z,946.62
2018-01-21T00:58:06.366Z,946.61
2018-01-21T00:59:06.374Z,946.65
2018-01-21T01:00:06.357Z,946.66
2018-01-21T01:01:06.359Z,946.68
2018-01-21T01:02:06.342Z,946.75
2018-01-21T01:03:06.337Z,946.75
2018-01-21T01:04:06.332Z,946.81
2018-01-21T01:05:06.320Z,946.85
2018-01-21T01:06:06.320Z,946.83
2018-01-21T01:07:06.308Z,946.85
2018-01-21T01:08:06.299Z,946.87
2018-01-21T01:09:06.295Z,946.90
2018-01-21T01:10:06.307Z,946.91
2018-01-21T01:11:06.284Z,946.94
2018-01-21T01:12:06.275Z,947.01
2018-01-21T01:13:06.267Z,947.03
2018-01-21T01:14:06.262Z,947.06
2018-01-21T01:15:06.254Z,947.13
2018-01-21T01:16:06.247Z,947.14
2018-01-21T01:17:06.241Z,947.14
2018-01-21T01:18:06.233Z,947.17
2018-01-21T01:19:06.232Z,947.20
2018-01-21T01:20:06.221Z,947.18
2018-01-21T01:21:06.215Z,947.21
2018-01-21T01:22:06.207Z,947.19
2018-01-21T01:23:06.207Z,947.22
2018-01-21T01:24:06.200Z,947.27
2018-01-21T01:25:06.196Z,947.27
2018-01-21T01:26:06.183Z,947.29
2018-01-21T01:27:06.174Z,947.32
2018-01-21T01:28:06.169Z,947.30
2018-01-21T01:29:06.162Z,947.33
2018-01-21T01:30:06.157Z,947.35
2018-01-21T01:31:06.148Z,947.37
2018-01-21T01:32:06.139Z,947.41
2018-01-21T01:33:06.135Z,947.44
2018-01-21T01:34:06.128Z,947.43
2018-01-21T01:35:07.902Z,947.46
2018-01-21T01:36:06.119Z,947.47
2018-01-21T01:37:06.106Z,947.48
2018-01-21T01:38:06.102Z,947.51
2018-01-21T01:39:06.094Z,947.55
2018-01-21T01:40:06.088Z,947.54
2018-01-21T01:41:06.083Z,947.56
2018-01-21T01:42:06.075Z,947.58
2018-01-21T01:43:06.069Z,947.59
2018-01-21T01:44:06.092Z,947.62
2018-01-21T01:45:06.085Z,947.66
2018-01-21T01:46:06.048Z,947.67
2018-01-21T01:47:06.042Z,947.67
2018-01-21T01:48:06.035Z,947.65
2018-01-21T01:49:06.026Z,947.64
2018-01-21T01:50:06.033Z,947.67
2018-01-21T01:51:06.018Z,947.68
2018-01-21T01:52:06.006Z,947.69
2018-01-21T01:53:06.000Z,947.64
2018-01-21T01:54:05.998Z,947.68
2018-01-21T01:55:05.987Z,947.71
2018-01-21T01:56:05.982Z,947.72
2018-01-21T01:57:05.973Z,947.72
2018-01-21T01:58:05.970Z,947.76
2018-01-21T01:59:05.961Z,947.76
2018-01-21T02:00:05.952Z,947.77
2018-01-21T02:01:05.952Z,947.74
2018-01-21T02:02:05.940Z,947.77
2018-01-21T02:03:05.963Z,947.77
2018-01-21T02:04:05.925Z,947.81
2018-01-21T02:05:05.921Z,947.84
2018-01-21T02:06:05.914Z,947.84
2018-01-21T02:07:05.908Z,947.85
2018-01-21T02:08:05.900Z,947.86
2018-01-21T02:09:05.894Z,947.87
2018-01-21T02:10:05.887Z,947.87
2018-01-21T02:11:05.880Z,947.87
2018-01-21T02:12:05.873Z,947.92
2018-01-21T02:13:05.875Z,947.90
2018-01-21T02:14:05.866Z,947.83
2018-01-21T02:15:05.860Z,947.91
2018-01-21T02:16:05.855Z,947.88
2018-01-21T02:17:05.837Z,947.94
2018-01-21T02:18:05.832Z,947.97
2018-01-21T02:19:05.826Z,947.95
2018-01-21T02:20:05.826Z,947.94
2018-01-21T02:21:05.813Z,947.95
2018-01-21T02:22:05.819Z,947.92
2018-01-21T02:23:05.801Z,947.94
2018-01-21T02:24:05.804Z,947.93
2018-01-21T02:25:05.788Z,947.91
2018-01-21T02:26:05.780Z,947.95
2018-01-21T02:27:05.771Z,947.94
2018-01-21T02:28:05.765Z,947.91
2018-01-21T02:29:05.762Z,947.96
2018-01-21T02:30:05.779Z,947.95
2018-01-21T02:31:05.757Z,947.96
2018-01-21T02:32:05.739Z,947.96
2018-01-21T02:33:05.733Z,947.97
2018-01-21T02:34:05.725Z,947.94
2018-01-21T02:35:05.740Z,947.97
2018-01-21T02:36:05.712Z,947.99
2018-01-21T02:37:05.704Z,947.96
2018-01-21T02:38:05.700Z,947.96
2018-01-21T02:39:05.694Z,947.98
2018-01-21T02:40:05.688Z,947.96
2018-01-21T02:41:05.677Z,947.98
2018-01-21T02:42:05.672Z,947.99
2018-01-21T02:43:05.662Z,947.97
2018-01-21T02:44:05.660Z,947.96
2018-01-21T02:45:05.671Z,948.01
2018-01-21T02:46:05.646Z,947.96
2018-01-21T02:47:05.641Z,947.99
2018-01-21T02:48:05.636Z,948.00
2018-01-21T02:49:05.624Z,948.01
2018-01-21T02:50:05.618Z,947.99
2018-01-21T02:51:05.610Z,948.02
2018-01-21T02:52:05.605Z,948.08
2018-01-21T02:53:05.598Z,948.15
2018-01-21T02:54:05.615Z,948.11
2018-01-21T02:55:05.585Z,948.13
2018-01-21T02:56:05.575Z,948.13
2018-01-21T02:57:05.571Z,948.18
2018-01-21T02:58:05.562Z,948.19
2018-01-21T02:59:05.557Z,948.26
2018-01-21T03:00:05.551Z,948.30
2018-01-21T03:01:05.541Z,948.26
2018-01-21T03:02:05.542Z,948.29
2018-01-21T03:03:05.537Z,948.30
2018-01-21T03:04:05.522Z,948.31
2018-01-21T03:05:05.520Z,948.31
2018-01-21T03:06:05.508Z,948.32
2018-01-21T03:07:05.503Z,948.30
2018-01-21T03:08:05.499Z,948.33
2018-01-21T03:09:05.488Z,948.32
2018-01-21T03:10:05.487Z,948.37
2018-01-21T03:11:05.476Z,948.37
2018-01-21T03:12:05.469Z,948.40
2018-01-21T03:13:05.461Z,948.44
2018-01-21T03:14:05.464Z,948.46
2018-01-21T03:15:05.448Z,948.44
2018-01-21T03:16:05.441Z,948.43
2018-01-21T03:17:05.439Z,948.46
2018-01-21T03:18:05.428Z,948.46
2018-01-21T03:19:05.419Z,948.50
2018-01-21T03:20:05.414Z,948.49
2018-01-21T03:21:05.407Z,948.50
2018-01-21T03:22:05.403Z,948.52
2018-01-21T03:23:05.398Z,948.52
2018-01-21T03:24:05.395Z,948.57
2018-01-21T03:25:05.399Z,948.57
2018-01-21T03:26:05.390Z,948.60
2018-01-21T03:27:05.372Z,948.63
2018-01-21T03:28:05.358Z,948.61
2018-01-21T03:29:05.352Z,948.63
2018-01-21T03:30:05.357Z,948.70
2018-01-21T03:31:05.341Z,948.67
2018-01-21T03:32:05.335Z,948.70
2018-01-21T03:33:05.330Z,948.75
2018-01-21T03:34:05.317Z,948.76
2018-01-21T03:35:05.312Z,948.81
2018-01-21T03:36:05.304Z,948.77
2018-01-21T03:37:05.299Z,948.79
2018-01-21T03:38:05.289Z,948.83
2018-01-21T03:39:05.286Z,948.82
2018-01-21T03:40:05.289Z,948.83
2018-01-21T03:41:05.280Z,948.84
2018-01-21T03:42:05.266Z,948.87
2018-01-21T03:43:05.265Z,948.89
2018-01-21T03:44:05.250Z,948.86
2018-01-21T03:45:05.243Z,948.91
2018-01-21T03:46:05.238Z,948.91
2018-01-21T03:47:05.231Z,948.95
2018-01-21T03:48:05.233Z,948.92
2018-01-21T03:49:05.255Z,949.00
2018-01-21T03:50:05.243Z,949.04
2018-01-21T03:51:05.217Z,949.03
2018-01-21T03:52:05.195Z,949.06
2018-01-21T03:53:05.189Z,949.08
2018-01-21T03:54:05.187Z,949.11
2018-01-21T03:55:05.176Z,949.11
2018-01-21T03:56:05.168Z,949.17
2018-01-21T03:57:05.161Z,949.17
2018-01-21T03:58:05.155Z,949.16
2018-01-21T03:59:05.150Z,949.18
2018-01-21T04:00:05.140Z,949.18
2018-01-21T04:01:05.132Z,949.24
2018-01-21T04:02:05.128Z,949.21
2018-01-21T04:03:05.126Z,949.23
2018-01-21T04:04:05.113Z,949.22
2018-01-21T04:05:05.109Z,949.26
2018-01-21T04:06:05.115Z,949.27
2018-01-21T04:07:05.093Z,949.28
2018-01-21T04:08:05.089Z,949.27
2018-01-21T04:09:05.077Z,949.24
2018-01-21T04:10:05.073Z,949.31
2018-01-21T04:11:05.067Z,949.28
2018-01-21T04:12:05.057Z,949.36
2018-01-21T04:13:05.052Z,949.39
2018-01-21T04:14:05.079Z,949.43
2018-01-21T04:15:05.038Z,949.48
2018-01-21T04:16:05.031Z,949.51
2018-01-21T04:17:05.024Z,949.50
2018-01-21T04:18:05.037Z,949.57
2018-01-21T04:19:05.011Z,949.58
2018-01-21T04:20:05.006Z,949.62
2018-01-21T04:21:04.999Z,949.63
2018-01-21T04:22:04.996Z,949.63
2018-01-21T04:23:04.982Z,949.70
2018-01-21T04:24:04.975Z,949.74
2018-01-21T04:25:04.969Z,949.75
2018-01-21T04:26:04.975Z,949.76
2018-01-21T04:27:04.955Z,949.80
2018-01-21T04:28:04.948Z,949.83
2018-01-21T04:29:04.941Z,949.83
2018-01-21T04:30:04.937Z,949.89
2018-01-21T04:31:04.933Z,949.92
2018-01-21T04:32:04.920Z,949.98
2018-01-21T04:33:04.912Z,949.93
2018-01-21T04:34:04.908Z,950.01
2018-01-21T04:35:04.900Z,949.97
2018-01-21T04:36:04.892Z,950.03
2018-01-21T04:37:04.889Z,950.06
2018-01-21T04:38:04.893Z,950.11
2018-01-21T04:39:04.872Z,950.15
2018-01-21T04:40:04.863Z,950.11
2018-01-21T04:41:04.856Z,950.15
2018-01-21T04:42:04.855Z,950.19
2018-01-21T04:43:04.856Z,950.19
2018-01-21T04:44:04.835Z,950.17
2018-01-21T04:45:04.829Z,950.22
2018-01-21T04:46:04.822Z,950.27
2018-01-21T04:47:04.814Z,950.30
2018-01-21T04:48:04.807Z,950.27
2018-01-21T04:49:04.801Z,950.30
2018-01-21T04:50:04.794Z,950.34
2018-01-21T04:51:04.786Z,950.32
2018-01-21T04:52:04.779Z,950.29
2018-01-21T04:53:04.771Z,950.41
2018-01-21T04:54:04.764Z,950.40
2018-01-21T04:55:04.757Z,950.46
2018-01-21T04:56:04.758Z,950.46
2018-01-21T04:57:04.746Z,950.48
2018-01-21T04:58:04.734Z,950.51
2018-01-21T04:59:04.729Z,950.52
2018-01-21T05:00:04.722Z,950.53
2018-01-21T05:01:04.715Z,950.55
2018-01-21T05:02:04.706Z,950.52
2018-01-21T05:03:04.699Z,950.55
2018-01-21T05:04:04.691Z,950.56
2018-01-21T05:05:04.687Z,950.61
2018-01-21T05:06:04.677Z,950.61
2018-01-21T05:07:04.676Z,950.63
2018-01-21T05:08:04.663Z,950.64
2018-01-21T05:09:04.655Z,950.63
2018-01-21T05:10:04.650Z,950.67
2018-01-21T05:11:04.639Z,950.64
2018-01-21T05:12:04.642Z,950.70
2018-01-21T05:13:04.629Z,950.73
2018-01-21T05:14:04.622Z,950.76
2018-01-21T05:15:04.613Z,950.77
2018-01-21T05:16:04.605Z,950.77
2018-01-21T05:17:04.596Z,950.75
2018-01-21T05:18:04.588Z,950.80
2018-01-21T05:19:04.583Z,950.81
2018-01-21T05:20:04.582Z,950.80
2018-01-21T05:21:04.571Z,950.79
2018-01-21T05:22:04.560Z,950.79
2018-01-21T05:23:04.554Z,950.86
2018-01-21T05:24:04.547Z,950.85
2018-01-21T05:25:04.538Z,950.87
2018-01-21T05:26:04.531Z,950.95
2018-01-21T05:27:04.523Z,950.93
2018-01-21T05:28:04.516Z,950.97
2018-01-21T05:29:04.509Z,951.03
2018-01-21T05:30:04.502Z,951.01
2018-01-21T05:31:04.544Z,951.06
2018-01-21T05:32:04.489Z,951.08
2018-01-21T05:33:04.480Z,951.11
2018-01-21T05:34:04.471Z,951.11
2018-01-21T05:35:04.466Z,951.17
2018-01-21T05:36:04.465Z,951.19
2018-01-21T05:37:04.450Z,951.24
2018-01-21T05:38:04.441Z,951.24
2018-01-21T05:39:04.436Z,951.28
2018-01-21T05:40:04.429Z,951.25
2018-01-21T05:41:04.421Z,951.28
2018-01-21T05:42:04.414Z,951.30
2018-01-21T05:43:04.406Z,951.32
2018-01-21T05:44:04.399Z,951.39
2018-01-21T05:45:04.392Z,951.38
2018-01-21T05:46:04.385Z,951.42
2018-01-21T05:47:04.379Z,951.42
2018-01-21T05:48:04.369Z,951.50
2018-01-21T05:49:04.365Z,951.49
2018-01-21T05:50:04.355Z,951.50
2018-01-21T05:51:04.349Z,951.51
2018-01-21T05:52:04.342Z,951.54
2018-01-21T05:53:04.333Z,951.59
2018-01-21T05:54:04.327Z,951.59
2018-01-21T05:55:04.320Z,951.63
2018-01-21T05:56:04.312Z,951.70
2018-01-21T05:57:04.303Z,951.71
2018-01-21T05:58:04.296Z,951.71
2018-01-21T05:59:04.296Z,951.78
2018-01-21T06:00:04.289Z,951.79
2018-01-21T06:01:04.276Z,951.85
2018-01-21T06:02:04.269Z,951.89
2018-01-21T06:03:04.263Z,951.86
2018-01-21T06:04:04.257Z,951.90
2018-01-21T06:05:04.251Z,951.97
2018-01-21T06:06:04.240Z,951.95
2018-01-21T06:07:04.232Z,952.05
2018-01-21T06:08:04.225Z,952.04
2018-01-21T06:09:04.219Z,952.04
2018-01-21T06:10:04.212Z,952.13
2018-01-21T06:11:04.202Z,952.15
2018-01-21T06:12:04.213Z,952.16
2018-01-21T06:13:04.232Z,952.20
2018-01-21T06:14:04.183Z,952.17
2018-01-21T06:15:04.182Z,952.26
2018-01-21T06:16:04.171Z,952.25
2018-01-21T06:17:04.162Z,952.25
2018-01-21T06:18:04.153Z,952.28
2018-01-21T06:19:04.142Z,952.35
2018-01-21T06:20:04.140Z,952.39
2018-01-21T06:21:04.135Z,952.44
2018-01-21T06:22:04.125Z,952.43
2018-01-21T06:23:04.116Z,952.46
2018-01-21T06:24:04.111Z,952.45
2018-01-21T06:25:04.103Z,952.46
2018-01-21T06:26:04.094Z,952.51
2018-01-21T06:27:04.093Z,952.49
2018-01-21T06:28:04.081Z,952.55
2018-01-21T06:29:04.073Z,952.58
2018-01-21T06:30:04.069Z,952.62
2018-01-21T06:31:04.060Z,952.59
2018-01-21T06:32:04.051Z,952.64
2018-01-21T06:33:04.045Z,952.63
2018-01-21T06:34:04.044Z,952.67
2018-01-21T06:35:04.030Z,952.75
2018-01-21T06:36:04.022Z,952.76
2018-01-21T06:37:04.019Z,952.76
2018-01-21T06:38:04.009Z,952.76
2018-01-21T06:39:04.001Z,952.79
2018-01-21T06:40:03.993Z,952.79
2018-01-21T06:41:03.996Z,952.90
2018-01-21T06:42:03.978Z,952.90
2018-01-21T06:43:03.973Z,952.91
2018-01-21T06:44:03.964Z,952.97
2018-01-21T06:45:03.957Z,952.99
2018-01-21T06:46:03.951Z,952.99
2018-01-21T06:47:03.944Z,953.05
2018-01-21T06:48:03.935Z,953.05
2018-01-21T06:49:03.929Z,953.09
2018-01-21T06:50:03.923Z,953.10
2018-01-21T06:51:03.923Z,953.17
2018-01-21T06:52:03.907Z,953.20
2018-01-21T06:53:03.910Z,953.20
2018-01-21T06:54:04.187Z,953.26
2018-01-21T06:55:03.883Z,953.28
2018-01-21T06:56:03.876Z,953.25
2018-01-21T06:57:03.870Z,953.24
2018-01-21T06:58:03.861Z,953.27
2018-01-21T06:59:03.854Z,953.30
2018-01-21T07:00:03.850Z,953.37
2018-01-21T07:01:03.841Z,953.33
2018-01-21T07:02:03.833Z,953.38
2018-01-21T07:03:03.829Z,953.43
2018-01-21T07:04:03.818Z,953.49
2018-01-21T07:05:03.832Z,953.51
2018-01-21T07:06:03.804Z,953.53
2018-01-21T07:07:03.799Z,953.53
2018-01-21T07:08:03.791Z,953.58
2018-01-21T07:09:03.780Z,953.58
2018-01-21T07:10:03.774Z,953.70
2018-01-21T07:11:03.837Z,953.69
2018-01-21T07:12:03.760Z,953.70
2018-01-21T07:13:03.752Z,953.75
2018-01-21T07:14:03.745Z,953.80
2018-01-21T07:15:03.760Z,953.82
2018-01-21T07:16:03.730Z,953.87
2018-01-21T07:17:03.729Z,953.85
2018-01-21T07:18:03.715Z,953.92
2018-01-21T07:19:03.709Z,953.95
2018-01-21T07:20:03.697Z,953.95
2018-01-21T07:21:03.692Z,954.04
2018-01-21T07:22:03.685Z,954.05
2018-01-21T07:23:03.679Z,954.09
2018-01-21T07:24:03.670Z,954.08
2018-01-21T07:25:03.663Z,954.09
2018-01-21T07:26:03.657Z,954.17
2018-01-21T07:27:03.687Z,954.20
2018-01-21T07:28:03.642Z,954.23
2018-01-21T07:29:03.632Z,954.23
2018-01-21T07:30:03.628Z,954.32
2018-01-21T07:31:03.618Z,954.36
2018-01-21T07:32:03.611Z,954.40
2018-01-21T07:33:03.660Z,954.39
2018-01-21T07:34:03.597Z,954.43
2018-01-21T07:35:03.680Z,954.49
2018-01-21T07:36:03.587Z,954.51
2018-01-21T07:37:03.577Z,954.56
2018-01-21T07:38:03.567Z,954.63
2018-01-21T07:39:03.560Z,954.67
2018-01-21T07:40:03.552Z,954.68
2018-01-21T07:41:03.545Z,954.69
2018-01-21T07:42:03.538Z,954.73
2018-01-21T07:43:03.532Z,954.79
2018-01-21T07:44:03.522Z,954.80
2018-01-21T07:45:03.512Z,954.84
2018-01-21T07:46:03.507Z,954.89
2018-01-21T07:47:03.501Z,954.91
2018-01-21T07:48:03.492Z,954.94
2018-01-21T07:49:03.487Z,955.00
2018-01-21T07:50:03.536Z,955.04
2018-01-21T07:51:03.469Z,955.06
2018-01-21T07:52:03.476Z,955.12
2018-01-21T07:53:03.455Z,955.06
2018-01-21T07:54:03.531Z,955.13
2018-01-21T07:55:03.531Z,955.15
2018-01-21T07:56:03.432Z,955.19
2018-01-21T07:57:03.522Z,955.24
2018-01-21T07:58:03.477Z,955.21
2018-01-21T07:59:03.418Z,955.27
2018-01-21T08:00:03.404Z,955.24
2018-01-21T08:01:03.397Z,955.25
2018-01-21T08:02:03.397Z,955.24
2018-01-21T08:03:03.382Z,955.36
2018-01-21T08:04:03.377Z,955.37
2018-01-21T08:05:03.366Z,955.40
2018-01-21T08:06:03.371Z,955.43
2018-01-21T08:07:03.355Z,955.43
2018-01-21T08:08:03.345Z,955.50
2018-01-21T08:09:03.340Z,955.50
2018-01-21T08:10:03.330Z,955.53
2018-01-21T08:11:03.323Z,955.56
2018-01-21T08:12:03.316Z,955.53
2018-01-21T08:13:03.308Z,955.60
2018-01-21T08:14:03.301Z,955.62
2018-01-21T08:15:03.297Z,955.66
2018-01-21T08:16:03.288Z,955.70
2018-01-21T08:17:03.279Z,955.71
2018-01-21T08:18:03.280Z,955.78
2018-01-21T08:19:03.264Z,955.81
2018-01-21T08:20:03.258Z,955.80
2018-01-21T08:21:03.248Z,955.83
2018-01-21T08:22:03.242Z,955.92
2018-01-21T08:23:03.236Z,955.92
2018-01-21T08:24:03.227Z,955.92
2018-01-21T08:25:03.220Z,955.99
2018-01-21T08:26:03.215Z,955.97
2018-01-21T08:27:03.214Z,956.00
2018-01-21T08:28:03.204Z,956.04
2018-01-21T08:29:03.193Z,956.06
2018-01-21T08:30:03.187Z,956.05
2018-01-21T08:31:03.178Z,956.10
2018-01-21T08:32:03.173Z,956.12
2018-01-21T08:33:03.167Z,956.14
2018-01-21T08:34:03.158Z,956.17
2018-01-21T08:35:03.154Z,956.24
2018-01-21T08:36:03.145Z,956.21
2018-01-21T08:37:03.135Z,956.24
2018-01-21T08:38:03.131Z,956.26
2018-01-21T08:39:03.123Z,956.24
2018-01-21T08:40:03.112Z,956.26
2018-01-21T08:41:03.105Z,956.29
2018-01-21T08:42:03.100Z,956.32
2018-01-21T08:43:03.098Z,956.39
2018-01-21T08:44:03.085Z,956.37
2018-01-21T08:45:03.077Z,956.39
2018-01-21T08:46:03.070Z,956.44
2018-01-21T08:47:03.063Z,956.45
2018-01-21T08:48:03.057Z,956.47
2018-01-21T08:49:03.049Z,956.47
2018-01-21T08:50:03.042Z,956.52
2018-01-21T08:51:03.036Z,956.49
2018-01-21T08:52:03.033Z,956.53
2018-01-21T08:53:03.022Z,956.57
2018-01-21T08:54:03.016Z,956.62
2018-01-21T08:55:03.007Z,956.60
2018-01-21T08:56:02.999Z,956.58
2018-01-21T08:57:02.994Z,956.61
2018-01-21T08:58:02.983Z,956.61
2018-01-21T08:59:02.983Z,956.61
2018-01-21T09:00:02.973Z,956.60
2018-01-21T09:01:02.966Z,956.64
2018-01-21T09:02:02.959Z,956.68
2018-01-21T09:03:02.953Z,956.71
2018-01-21T09:04:02.945Z,956.72
2018-01-21T09:05:02.937Z,956.71
2018-01-21T09:06:02.930Z,956.77
2018-01-21T09:07:02.925Z,956.74
2018-01-21T09:08:02.917Z,956.77
2018-01-21T09:09:02.910Z,956.81
2018-01-21T09:10:02.906Z,956.75
2018-01-21T09:11:02.900Z,956.80
2018-01-21T09:12:02.893Z,956.85
2018-01-21T09:13:02.885Z,956.84
2018-01-21T09:14:02.880Z,956.86
2018-01-21T09:15:02.867Z,956.89
2018-01-21T09:16:02.867Z,956.89
2018-01-21T09:17:02.855Z,956.89
2018-01-21T09:18:02.849Z,956.93
2018-01-21T09:19:02.843Z,956.94
2018-01-21T09:20:02.878Z,956.99
2018-01-21T09:21:02.829Z,956.98
2018-01-21T09:22:02.824Z,956.98
2018-01-21T09:23:02.815Z,957.06
2018-01-21T09:24:02.805Z,957.08
2018-01-21T09:25:02.801Z,957.01
2018-01-21T09:26:02.795Z,957.07
2018-01-21T09:27:02.787Z,957.11
2018-01-21T09:28:02.779Z,957.12
2018-01-21T09:29:02.776Z,957.17
2018-01-21T09:30:02.775Z,957.17
2018-01-21T09:31:02.760Z,957.19
2018-01-21T09:32:02.752Z,957.21
2018-01-21T09:33:02.746Z,957.22
2018-01-21T09:34:02.741Z,957.26
2018-01-21T09:35:02.733Z,957.28
2018-01-21T09:36:02.726Z,957.30
2018-01-21T09:37:02.719Z,957.30
2018-01-21T09:38:02.712Z,957.33
2018-01-21T09:39:02.706Z,957.39
2018-01-21T09:40:02.702Z,957.38
2018-01-21T09:41:02.694Z,957.39
2018-01-21T09:42:02.685Z,957.45
2018-01-21T09:43:02.679Z,957.47
2018-01-21T09:44:02.672Z,957.52
2018-01-21T09:45:02.669Z,957.48
2018-01-21T09:46:02.659Z,957.51
2018-01-21T09:47:02.664Z,957.53
2018-01-21T09:48:02.645Z,957.49
2018-01-21T09:49:02.645Z,957.56
2018-01-21T09:50:02.638Z,957.60
2018-01-21T09:51:02.626Z,957.65
2018-01-21T09:52:02.641Z,957.71
2018-01-21T09:53:02.611Z,957.70
2018-01-21T09:54:02.607Z,957.70
2018-01-21T09:55:02.601Z,957.68
2018-01-21T09:56:02.592Z,957.72
2018-01-21T09:57:02.585Z,957.76
2018-01-21T09:58:02.579Z,957.75
2018-01-21T09:59:02.573Z,957.79
2018-01-21T10:00:02.563Z,957.85
2018-01-21T10:01:02.561Z,957.79
2018-01-21T10:02:02.552Z,957.81
2018-01-21T10:03:02.544Z,957.88
2018-01-21T10:04:02.542Z,957.90
2018-01-21T10:05:02.532Z,957.91
2018-01-21T10:06:02.523Z,957.96
2018-01-21T10:07:02.527Z,957.91
2018-01-21T10:08:02.519Z,957.88
2018-01-21T10:09:02.507Z,957.95
2018-01-21T10:10:02.498Z,957.96
2018-01-21T10:11:02.494Z,957.96
2018-01-21T10:12:02.484Z,958.00
2018-01-21T10:13:02.479Z,958.04
2018-01-21T10:14:02.473Z,958.05
2018-01-21T10:15:02.465Z,958.06
2018-01-21T10:16:02.460Z,958.07
2018-01-21T10:17:02.472Z,958.04
2018-01-21T10:18:02.447Z,958.10
2018-01-21T10:19:02.441Z,958.07
2018-01-21T10:20:02.437Z,958.09
2018-01-21T10:21:02.458Z,958.15
2018-01-21T10:22:02.445Z,958.17
2018-01-21T10:23:02.422Z,958.19
2018-01-21T10:24:02.420Z,958.18
2018-01-21T10:25:02.403Z,958.24
2018-01-21T10:26:02.392Z,958.22
2018-01-21T10:27:02.390Z,958.22
2018-01-21T10:28:02.381Z,958.26
2018-01-21T10:29:02.380Z,958.30
2018-01-21T10:30:02.368Z,958.31
2018-01-21T10:31:02.367Z,958.35
2018-01-21T10:32:02.357Z,958.37
2018-01-21T10:33:02.350Z,958.39
2018-01-21T10:34:02.352Z,958.35
2018-01-21T10:35:02.339Z,958.40
2018-01-21T10:36:02.325Z,958.42
2018-01-21T10:37:02.320Z,958.44
2018-01-21T10:38:02.315Z,958.50
2018-01-21T10:39:02.308Z,958.50
2018-01-21T10:40:02.305Z,958.53
2018-01-21T10:41:02.296Z,958.52
2018-01-21T10:42:02.294Z,958.59
2018-01-21T10:43:02.288Z,958.54
2018-01-21T10:44:02.283Z,958.55
2018-01-21T10:45:02.267Z,958.60
2018-01-21T10:46:02.264Z,958.59
2018-01-21T10:47:02.254Z,958.62
2018-01-21T10:48:02.247Z,958.65
2018-01-21T10:49:02.243Z,958.62
2018-01-21T10:50:02.235Z,958.70
2018-01-21T10:51:02.227Z,958.72
2018-01-21T10:52:02.221Z,958.72
2018-01-21T10:53:02.215Z,958.73
2018-01-21T10:54:02.208Z,958.78
2018-01-21T10:55:02.205Z,958.76
2018-01-21T10:56:02.192Z,958.82
2018-01-21T10:57:02.189Z,958.80
2018-01-21T10:58:02.180Z,958.83
2018-01-21T10:59:02.175Z,958.83
2018-01-21T11:00:02.169Z,958.86
2018-01-21T11:01:02.164Z,958.82
2018-01-21T11:02:02.154Z,958.85
2018-01-21T11:03:02.149Z,958.88
2018-01-21T11:04:02.141Z,958.89
2018-01-21T11:05:02.200Z,958.95
2018-01-21T11:06:02.133Z,958.93
2018-01-21T11:07:02.127Z,958.91
2018-01-21T11:08:02.117Z,958.94
2018-01-21T11:09:02.109Z,959.00
2018-01-21T11:10:02.154Z,958.99
2018-01-21T11:11:02.096Z,958.97
2018-01-21T11:12:02.092Z,959.01
2018-01-21T11:13:02.089Z,958.99
2018-01-21T11:14:02.078Z,959.01
2018-01-21T11:15:02.073Z,959.03
2018-01-21T11:16:02.067Z,959.05
2018-01-21T11:17:02.059Z,959.07
2018-01-21T11:18:02.052Z,959.08
2018-01-21T11:19:02.046Z,959.10
2018-01-21T11:20:02.057Z,959.13
2018-01-21T11:21:02.030Z,959.16
2018-01-21T11:22:02.026Z,959.15
2018-01-21T11:23:02.024Z,959.16
2018-01-21T11:24:02.016Z,959.19
2018-01-21T11:25:02.144Z,959.18
2018-01-21T11:26:02.002Z,959.24
2018-01-21T11:27:01.998Z,959.24
2018-01-21T11:28:01.987Z,959.28
2018-01-21T11:29:01.985Z,959.28
2018-01-21T11:30:01.979Z,959.27
2018-01-21T11:31:01.972Z,959.31
2018-01-21T11:32:01.964Z,959.32
2018-01-21T11:33:01.960Z,959.32
2018-01-21T11:34:01.952Z,959.28
2018-01-21T11:35:01.945Z,959.36
2018-01-21T11:36:01.939Z,959.33
2018-01-21T11:37:01.931Z,959.38
2018-01-21T11:38:01.927Z,959.36
2018-01-21T11:39:01.925Z,959.40
2018-01-21T11:40:01.916Z,959.37
2018-01-21T11:41:01.908Z,959.42
2018-01-21T11:42:01.905Z,959.37
2018-01-21T11:43:01.897Z,959.47
2018-01-21T11:44:01.896Z,959.48
2018-01-21T11:45:01.884Z,959.47
2018-01-21T11:46:01.879Z,959.50
2018-01-21T11:47:01.877Z,959.51
2018-01-21T11:48:01.867Z,959.50
2018-01-21T11:49:01.861Z,959.51
2018-01-21T11:50:01.896Z,959.54
2018-01-21T11:51:01.849Z,959.56
2018-01-21T11:52:01.850Z,959.54
2018-01-21T11:53:01.840Z,959.57
2018-01-21T11:54:01.840Z,959.55
2018-01-21T11:55:01.828Z,959.55
2018-01-21T11:56:01.820Z,959.62
2018-01-21T11:57:01.858Z,959.59
2018-01-21T11:58:01.817Z,959.54
2018-01-21T11:59:01.845Z,959.58
2018-01-21T12:00:01.798Z,959.60
2018-01-21T12:01:01.795Z,959.62
2018-01-21T12:02:01.786Z,959.62
2018-01-21T12:03:01.783Z,959.64
2018-01-21T12:04:01.774Z,959.63
2018-01-21T12:05:01.769Z,959.66
2018-01-21T12:06:01.765Z,959.69
2018-01-21T12:07:01.760Z,959.76
2018-01-21T12:08:01.752Z,959.75
2018-01-21T12:09:01.752Z,959.74
2018-01-21T12:10:01.741Z,959.75
2018-01-21T12:11:01.736Z,959.75
2018-01-21T12:12:01.729Z,959.79
2018-01-21T12:13:01.725Z,959.81
2018-01-21T12:14:01.719Z,959.81
2018-01-21T12:15:01.719Z,959.84
2018-01-21T12:16:01.713Z,959.85
2018-01-21T12:17:01.702Z,959.85
2018-01-21T12:18:01.698Z,959.86
2018-01-21T12:19:01.692Z,959.87
2018-01-21T12:20:01.686Z,959.86
2018-01-21T12:21:01.690Z,959.87
2018-01-21T12:22:01.676Z,959.84
2018-01-21T12:23:01.683Z,959.88
2018-01-21T12:24:01.710Z,959.88
2018-01-21T12:25:01.728Z,959.87
2018-01-21T12:26:01.655Z,959.88
2018-01-21T12:27:01.646Z,959.86
2018-01-21T12:28:01.643Z,959.86